Time;durP1;ratioP1;P1;durP2;ratioP2;P2;SDS_P1;SDS_P2;PMS_P1;PMS_P2;Temp;Humidity;BMP_temperature;BMP_pressure;BME280_temperature;BME280_humidity;BME280_pressure;Samples;Min_cycle;Max_cycle;Signal;HPM_P1;HPM_P2
2023/05/29 00:00:05;;;;;;;;;8.00;6.00;;;;;;;;5120018;27;47109;-78
2023/05/29 00:02:30;;;;;;;;;7.33;7.00;;;;;22.61;60.57;101512.44;5116029;27;45203;-76
2023/05/29 00:04:56;;;;;;;;;7.33;6.00;;;;;22.60;60.68;101514.25;5115867;27;62631;-76
2023/05/29 00:07:21;;;;;;;;;6.00;6.00;;;;;22.58;60.75;101515.19;5105815;27;60981;-78
2023/05/29 00:09:46;;;;;;;;;8.00;7.33;;;;;22.54;61.16;101513.53;5117951;27;70851;-76
2023/05/29 00:12:12;;;;;;;;;9.00;6.33;;;;;22.53;61.00;101517.13;5118128;27;67692;-78
2023/05/29 00:14:37;;;;;;;;;7.00;7.00;;;;;22.49;61.04;101514.53;5119297;27;45319;-78
2023/05/29 00:17:03;;;;;;;;;6.67;5.00;;;;;22.46;61.10;101528.06;5115602;27;58409;-76
2023/05/29 00:19:28;;;;;;;;;7.33;7.33;;;;;22.44;60.96;101515.59;5111209;27;46072;-78
2023/05/29 00:21:54;;;;;;;;;8.00;6.33;;;;;22.36;61.73;101515.78;5113027;27;68970;-77
2023/05/29 00:24:20;;;;;;;;;9.67;7.00;;;;;22.37;61.57;101531.03;5107302;27;45354;-77
2023/05/29 00:26:46;;;;;;;;;10.67;6.00;;;;;22.32;61.41;101524.91;5112184;27;45353;-78
2023/05/29 00:29:11;;;;;;;;;7.00;7.00;;;;;22.28;61.74;101519.63;5104383;27;45346;-78
2023/05/29 00:31:36;;;;;;;;;6.67;5.67;;;;;22.23;61.65;101526.00;5116163;27;65313;-77
2023/05/29 00:34:02;;;;;;;;;9.67;7.00;;;;;22.22;61.91;101532.31;5083817;27;45395;-76
2023/05/29 00:36:28;;;;;;;;;7.00;7.00;;;;;22.20;62.12;101527.88;5104938;27;45307;-79
2023/05/29 00:38:54;;;;;;;;;6.67;6.00;;;;;22.15;62.01;101519.94;5090024;27;46572;-77
2023/05/29 00:41:20;;;;;;;;;8.00;6.33;;;;;22.13;62.38;101518.22;5105448;27;45260;-79
2023/05/29 00:43:45;;;;;;;;;9.00;6.00;;;;;22.09;62.68;101512.00;5118445;27;45192;-76
2023/05/29 00:46:13;;;;;;;;;7.33;6.33;;;;;22.06;62.64;101508.53;5118493;27;45510;-77
2023/05/29 00:48:38;;;;;;;;;7.33;5.67;;;;;22.05;62.69;101514.78;5095678;27;45640;-76
2023/05/29 00:51:04;;;;;;;;;7.33;5.33;;;;;22.01;62.76;101505.06;5115782;27;57203;-78
2023/05/29 00:53:30;;;;;;;;;8.33;5.67;;;;;21.96;62.96;101513.25;5115127;27;45457;-79
2023/05/29 00:55:55;;;;;;;;;6.00;6.00;;;;;21.92;62.83;101507.06;5108023;27;45372;-77
2023/05/29 00:58:21;;;;;;;;;8.67;7.33;;;;;21.90;63.23;101510.72;5110084;27;63960;-76
2023/05/29 01:00:47;;;;;;;;;11.00;6.00;;;;;21.89;63.18;101508.91;5114283;27;66362;-76
2023/05/29 01:03:14;;;;;;;;;8.00;7.00;;;;;21.85;63.17;101501.88;5095126;27;65601;-78
2023/05/29 01:05:40;;;;;;;;;8.00;4.33;;;;;21.83;63.04;101509.97;5096407;27;45888;-76
2023/05/29 01:08:06;;;;;;;;;8.33;7.33;;;;;21.80;63.31;101506.47;5111102;27;47530;-76
2023/05/29 01:10:31;;;;;;;;;5.33;5.33;;;;;21.78;63.05;101509.19;5110987;27;67454;-76
2023/05/29 01:13:06;;;;;;;;;4.67;4.00;;;;;21.71;63.35;101500.41;5099351;27;45361;-77
2023/05/29 01:15:44;;;;;;;;;6.00;4.67;;;;;21.67;63.07;101501.38;5093667;27;45481;-76
2023/05/29 01:18:19;;;;;;;;;5.33;5.33;;;;;21.64;63.40;101505.97;5104725;27;46633;-79
2023/05/29 01:20:51;;;;;;;;;7.33;4.67;;;;;21.60;63.94;101504.28;5082115;27;45427;-76
2023/05/29 01:23:30;;;;;;;;;5.67;5.67;;;;;21.55;64.18;101503.50;5113726;27;45381;-79
2023/05/29 01:26:14;;;;;;;;;8.00;6.00;;;;;21.53;63.91;101518.78;5111528;27;45323;-77
2023/05/29 01:28:47;;;;;;;;;7.33;5.00;;;;;21.50;64.32;101511.66;5109655;27;46552;-76
2023/05/29 01:31:14;;;;;;;;;8.33;6.00;;;;;21.44;64.85;101504.63;5113340;27;45378;-76
2023/05/29 01:33:40;;;;;;;;;7.00;5.00;;;;;21.43;64.45;101513.63;5080382;27;45343;-76
2023/05/29 01:36:10;;;;;;;;;10.00;6.00;;;;;21.41;65.10;101523.53;5114922;27;45584;-78
2023/05/29 01:38:36;;;;;;;;;6.00;6.00;;;;;21.39;64.91;101513.72;5116282;27;47857;-79
2023/05/29 01:41:03;;;;;;;;;7.00;4.33;;;;;21.39;65.04;101514.59;5114221;27;45433;-79
2023/05/29 01:43:28;;;;;;;;;6.67;6.33;;;;;21.34;65.28;101508.44;5095065;27;55936;-78
2023/05/29 01:45:55;;;;;;;;;6.67;6.00;;;;;21.33;65.72;101511.19;5104922;27;58811;-78
2023/05/29 01:48:20;;;;;;;;;8.33;7.00;;;;;21.32;65.80;101518.34;5089626;27;46497;-76
2023/05/29 01:50:47;;;;;;;;;7.33;6.67;;;;;21.31;65.62;101519.28;5102459;27;66448;-76
2023/05/29 01:53:12;;;;;;;;;8.00;6.00;;;;;21.29;65.81;101514.81;5089324;27;45342;-76
2023/05/29 01:55:38;;;;;;;;;7.00;6.00;;;;;21.27;66.15;101517.53;5112788;27;56747;-76
2023/05/29 01:58:04;;;;;;;;;8.67;6.00;;;;;21.22;66.63;101514.06;5097715;27;63754;-76
2023/05/29 02:00:30;;;;;;;;;8.67;6.67;;;;;21.19;66.16;101506.94;5095401;27;64300;-76
2023/05/29 02:02:55;;;;;;;;;6.00;5.00;;;;;21.21;66.19;101514.13;5095165;27;45647;-78
2023/05/29 02:05:21;;;;;;;;;4.00;2.33;;;;;21.19;66.75;101522.19;5108809;27;49878;-77
2023/05/29 02:07:46;;;;;;;;;5.33;5.00;;;;;21.17;66.92;101524.03;5092938;27;46540;-78
2023/05/29 02:10:12;;;;;;;;;10.33;8.00;;;;;21.14;67.00;101516.03;5114295;27;47221;-78
2023/05/29 02:12:37;;;;;;;;;10.33;6.00;;;;;21.09;67.23;101516.16;5104688;27;45343;-76
2023/05/29 02:15:03;;;;;;;;;7.00;7.00;;;;;21.07;67.44;101512.59;5107305;27;61185;-78
2023/05/29 02:17:28;;;;;;;;;7.33;6.00;;;;;21.05;67.59;101517.13;5107490;27;46881;-78
2023/05/29 02:19:53;;;;;;;;;7.33;5.00;;;;;21.00;67.43;101508.28;5103780;27;64208;-76
2023/05/29 02:22:19;;;;;;;;;12.00;6.00;;;;;20.97;67.53;101505.66;5114573;27;58465;-77
2023/05/29 02:24:44;;;;;;;;;8.00;6.67;;;;;20.96;68.06;101511.06;5103496;27;45464;-76
2023/05/29 02:27:09;;;;;;;;;9.00;6.00;;;;;20.93;67.77;101520.97;5116177;27;68543;-78
2023/05/29 02:29:35;;;;;;;;;7.00;6.00;;;;;20.90;68.23;101512.97;5113665;27;62991;-78
2023/05/29 02:32:00;;;;;;;;;7.67;4.33;;;;;20.88;68.49;101512.13;5114616;27;45549;-76
2023/05/29 02:34:26;;;;;;;;;7.67;7.00;;;;;20.86;68.50;101521.97;5117576;27;45477;-77
2023/05/29 02:36:52;;;;;;;;;7.00;6.33;;;;;20.81;69.11;101518.50;5111713;27;45663;-76
2023/05/29 02:39:18;;;;;;;;;7.00;6.00;;;;;20.80;68.81;101516.75;5097260;27;45348;-77
2023/05/29 02:41:43;;;;;;;;;5.33;5.00;;;;;20.79;69.33;101525.72;5110937;27;45361;-78
2023/05/29 02:44:09;;;;;;;;;13.00;7.00;;;;;20.75;69.21;101517.75;5106180;27;60236;-78
2023/05/29 02:46:34;;;;;;;;;7.67;7.67;;;;;20.73;69.35;101524.97;5107258;27;47257;-77
2023/05/29 02:48:59;;;;;;;;;7.33;6.00;;;;;20.66;69.94;101516.13;5104525;27;66245;-76
2023/05/29 02:51:25;;;;;;;;;7.67;7.67;;;;;20.65;69.83;101522.41;5109198;27;45233;-76
2023/05/29 02:53:50;;;;;;;;;7.00;5.67;;;;;20.60;70.31;101521.63;5117624;27;62068;-77
2023/05/29 02:56:15;;;;;;;;;7.33;5.67;;;;;20.58;70.22;101524.34;5117700;27;56971;-76
2023/05/29 02:58:41;;;;;;;;;7.67;7.00;;;;;20.56;70.99;101527.94;5119728;27;45400;-78
2023/05/29 03:01:07;;;;;;;;;13.00;8.00;;;;;20.51;71.34;101532.56;5116373;27;45307;-79
2023/05/29 03:03:33;;;;;;;;;10.33;9.67;;;;;20.47;71.06;101523.66;5117428;27;45576;-77
2023/05/29 03:05:58;;;;;;;;;12.00;7.00;;;;;20.45;71.98;101525.44;5113829;27;46316;-78
2023/05/29 03:08:25;;;;;;;;;7.33;6.67;;;;;20.41;71.93;101534.47;5119999;27;45414;-76
2023/05/29 03:10:51;;;;;;;;;10.33;9.67;;;;;20.37;71.80;101536.31;5119579;27;45632;-78
2023/05/29 03:13:18;;;;;;;;;11.00;5.00;;;;;20.35;72.12;101540.84;5116080;27;45207;-77
2023/05/29 03:15:44;;;;;;;;;12.67;7.00;;;;;20.29;72.56;101529.31;5116975;27;47586;-77
2023/05/29 03:18:09;;;;;;;;;9.33;7.00;;;;;20.24;73.13;101544.59;5110413;27;45465;-77
2023/05/29 03:20:35;;;;;;;;;11.67;8.67;;;;;20.22;73.16;101546.44;5115458;27;45933;-78
2023/05/29 03:23:00;;;;;;;;;7.00;6.67;;;;;20.16;73.26;101550.13;5119709;27;45492;-78
2023/05/29 03:25:25;;;;;;;;;9.67;7.67;;;;;20.11;74.29;101552.00;5118014;27;46415;-76
2023/05/29 03:27:51;;;;;;;;;8.33;8.33;;;;;20.08;74.73;101557.38;5112648;27;65091;-76
2023/05/29 03:30:16;;;;;;;;;5.33;5.33;;;;;20.03;74.63;101553.94;5103979;27;48156;-78
2023/05/29 03:32:42;;;;;;;;;11.67;9.33;;;;;20.02;74.41;101552.13;5109657;27;45587;-76
2023/05/29 03:35:07;;;;;;;;;11.67;7.00;;;;;20.01;75.00;101553.06;5109805;27;64733;-76
2023/05/29 03:37:33;;;;;;;;;13.33;10.33;;;;;19.99;75.70;101560.25;5107486;27;45515;-76
2023/05/29 03:39:58;;;;;;;;;12.33;8.33;;;;;19.99;75.78;101557.56;5116951;27;46583;-77
2023/05/29 03:42:23;;;;;;;;;11.00;8.00;;;;;19.99;76.10;101562.94;5115722;27;63985;-79
2023/05/29 03:44:49;;;;;;;;;12.33;9.00;;;;;19.95;76.24;101551.34;5115986;27;64794;-76
2023/05/29 03:47:14;;;;;;;;;11.00;7.67;;;;;19.95;76.62;101558.50;5113217;27;45377;-78
2023/05/29 03:49:40;;;;;;;;;12.67;10.67;;;;;19.91;76.41;101555.00;5113880;27;59327;-76
2023/05/29 03:52:05;;;;;;;;;8.33;8.33;;;;;19.91;76.49;101556.78;5098813;27;45291;-78
2023/05/29 03:54:31;;;;;;;;;9.67;8.33;;;;;19.87;77.18;101547.94;5108497;27;46290;-76
2023/05/29 03:56:56;;;;;;;;;8.33;8.33;;;;;19.87;77.05;101558.66;5116523;27;45259;-77
2023/05/29 03:59:21;;;;;;;;;11.67;10.67;;;;;19.85;77.22;101557.78;5112081;27;45304;-76
2023/05/29 04:01:47;;;;;;;;;10.00;8.00;;;;;19.84;77.61;101564.03;5109967;27;61138;-75
2023/05/29 04:04:12;;;;;;;;;9.67;8.67;;;;;19.81;77.96;101562.28;5110601;27;69637;-76
2023/05/29 04:06:40;;;;;;;;;11.00;9.67;;;;;19.79;78.24;101566.78;5104301;27;60612;-77
2023/05/29 04:09:08;;;;;;;;;13.33;11.33;;;;;19.79;77.88;101571.28;5109205;27;45339;-75
2023/05/29 04:11:34;;;;;;;;;12.00;9.67;;;;;19.78;78.17;101583.78;5083478;27;45257;-76
2023/05/29 04:14:00;;;;;;;;;12.00;8.33;;;;;19.78;78.32;101586.47;5097834;27;46498;-76
2023/05/29 04:16:25;;;;;;;;;14.67;10.00;;;;;19.77;78.94;101591.84;5118457;27;45323;-78
2023/05/29 04:18:51;;;;;;;;;9.67;9.67;;;;;19.73;78.73;101592.81;5118411;27;63979;-77
2023/05/29 04:21:16;;;;;;;;;12.67;10.00;;;;;19.71;79.01;101603.56;5116433;27;61120;-76
2023/05/29 04:23:41;;;;;;;;;10.67;10.00;;;;;19.69;79.95;101600.00;5115604;27;45722;-78
2023/05/29 04:26:07;;;;;;;;;12.33;11.33;;;;;19.67;79.37;101598.25;5111963;27;45412;-76
2023/05/29 04:28:32;;;;;;;;;14.33;11.00;;;;;19.66;79.82;101602.75;5116923;27;45255;-75
2023/05/29 04:30:58;;;;;;;;;13.33;12.00;;;;;19.65;80.30;101608.97;5107738;27;61453;-79
2023/05/29 04:33:24;;;;;;;;;13.67;9.67;;;;;19.65;80.60;101603.63;5109691;27;47230;-77
2023/05/29 04:35:50;;;;;;;;;13.00;12.33;;;;;19.67;80.66;101615.22;5105348;27;45334;-75
2023/05/29 04:38:15;;;;;;;;;14.67;11.00;;;;;19.68;80.65;101616.97;5111867;27;45362;-76
2023/05/29 04:40:43;;;;;;;;;12.00;11.67;;;;;19.68;80.86;101626.81;5103820;27;45348;-77
2023/05/29 04:43:08;;;;;;;;;11.00;10.33;;;;;19.68;81.35;101619.66;5106109;27;46200;-75
2023/05/29 04:45:34;;;;;;;;;14.33;11.67;;;;;19.70;81.00;101635.72;5112637;27;68744;-76
2023/05/29 04:48:00;;;;;;;;;12.00;11.33;;;;;19.69;81.29;101629.47;5117421;27;45264;-75
2023/05/29 04:50:27;;;;;;;;;13.33;11.00;;;;;19.68;81.51;101638.41;5116614;27;45541;-76
2023/05/29 04:52:52;;;;;;;;;10.00;10.00;;;;;19.65;81.00;101637.56;5115010;27;46472;-78
2023/05/29 04:55:18;;;;;;;;;12.00;11.00;;;;;19.63;81.12;101632.22;5116319;27;45195;-76
2023/05/29 04:57:43;;;;;;;;;14.67;11.00;;;;;19.65;81.09;101634.88;5112699;27;60194;-76
2023/05/29 05:00:09;;;;;;;;;13.33;11.33;;;;;19.64;80.94;101642.03;5114000;27;45650;-77
2023/05/29 05:02:34;;;;;;;;;13.00;8.67;;;;;19.61;81.69;101636.75;5111474;27;47398;-78
2023/05/29 05:05:00;;;;;;;;;14.33;9.33;;;;;19.59;81.91;101642.09;5107282;27;65920;-76
2023/05/29 05:07:25;;;;;;;;;14.00;11.00;;;;;19.58;81.68;101637.63;5108805;27;45359;-76
2023/05/29 05:09:50;;;;;;;;;14.33;11.33;;;;;19.57;82.51;101637.66;5116796;27;46646;-76
2023/05/29 05:12:16;;;;;;;;;14.00;12.00;;;;;19.55;82.65;101628.75;5105704;27;68079;-75
2023/05/29 05:14:41;;;;;;;;;15.33;13.33;;;;;19.56;82.53;101634.09;5104901;27;67570;-79
2023/05/29 05:17:07;;;;;;;;;13.33;11.00;;;;;19.56;83.24;101644.81;5105998;27;45302;-76
2023/05/29 05:19:32;;;;;;;;;11.33;11.00;;;;;19.57;82.84;101634.97;5101659;27;45310;-78
2023/05/29 05:21:57;;;;;;;;;11.00;11.00;;;;;19.60;83.43;101640.31;5104652;27;64124;-76
2023/05/29 05:24:23;;;;;;;;;15.67;11.33;;;;;19.62;82.77;101641.19;5110255;27;67361;-79
2023/05/29 05:29:23;;;;;;;;;14.00;12.00;;;;;19.66;83.03;101650.09;5056579;22;46528;-77
2023/05/29 05:31:48;;;;;;;;;13.67;13.67;;;;;19.67;83.69;101652.72;5050586;28;67748;-75
2023/05/29 05:34:14;;;;;;;;;17.67;13.00;;;;;19.68;83.46;101657.19;5051838;28;63020;-77
2023/05/29 05:36:39;;;;;;;;;14.33;10.00;;;;;19.68;83.56;101658.97;5049413;28;45271;-77
2023/05/29 05:39:05;;;;;;;;;15.33;10.33;;;;;19.66;83.60;101659.00;5049012;28;45549;-75
2023/05/29 05:41:31;;;;;;;;;16.67;14.00;;;;;19.64;83.59;101663.47;5056631;28;46583;-76
2023/05/29 05:43:56;;;;;;;;;18.00;13.00;;;;;19.64;84.39;101660.78;5056789;28;45295;-78
2023/05/29 05:46:21;;;;;;;;;15.00;11.00;;;;;19.65;84.43;101675.97;5056915;28;45762;-76
2023/05/29 05:48:47;;;;;;;;;13.67;13.67;;;;;19.64;84.35;101658.13;5055451;28;45407;-77
2023/05/29 05:51:12;;;;;;;;;15.00;13.00;;;;;19.65;84.61;101672.41;5056925;28;46408;-75
2023/05/29 05:53:38;;;;;;;;;15.00;12.67;;;;;19.67;84.00;101665.25;5056284;28;62181;-77
2023/05/29 05:56:04;;;;;;;;;12.00;12.00;;;;;19.69;84.48;101666.09;5057060;28;45450;-75
2023/05/29 05:58:29;;;;;;;;;16.00;14.00;;;;;19.72;84.70;101666.94;5056559;28;45534;-77
2023/05/29 06:00:54;;;;;;;;;16.67;14.33;;;;;19.73;85.08;101663.38;5056214;28;45757;-75
2023/05/29 06:03:20;;;;;;;;;13.33;12.33;;;;;19.75;84.04;101677.63;5056745;28;45433;-77
2023/05/29 06:05:46;;;;;;;;;17.67;11.00;;;;;19.73;84.66;101666.03;5056639;28;45338;-77
2023/05/29 06:08:12;;;;;;;;;14.00;13.00;;;;;19.78;84.42;101679.38;5048936;28;45770;-78
2023/05/29 06:10:37;;;;;;;;;13.00;13.00;;;;;19.77;84.29;101673.13;5056764;28;46305;-76
2023/05/29 06:13:02;;;;;;;;;18.00;13.67;;;;;19.79;84.22;101678.47;5056879;28;47274;-75
2023/05/29 06:15:28;;;;;;;;;16.00;12.67;;;;;19.80;84.36;101683.78;5048841;28;59660;-77
2023/05/29 06:17:55;;;;;;;;;14.00;13.67;;;;;19.81;84.74;101680.22;5051097;28;61515;-74
2023/05/29 06:20:21;;;;;;;;;13.67;12.00;;;;;19.82;84.90;101673.97;5055716;28;46677;-75
2023/05/29 06:22:50;;;;;;;;;17.00;12.67;;;;;19.85;84.74;101683.75;5056242;28;45216;-76
2023/05/29 06:25:16;;;;;;;;;13.00;11.33;;;;;19.86;85.13;101683.72;5037040;28;45411;-76
2023/05/29 06:27:41;;;;;;;;;15.00;12.33;;;;;19.87;84.76;101687.31;5056131;28;45502;-79
2023/05/29 06:30:07;;;;;;;;;16.33;12.67;;;;;19.89;84.90;101685.47;5056331;28;45879;-76
2023/05/29 06:32:32;;;;;;;;;11.00;10.33;;;;;19.91;84.87;101690.81;5038312;28;45337;-77
2023/05/29 06:34:58;;;;;;;;;16.67;12.67;;;;;19.90;84.98;101689.94;5053866;28;62345;-76
2023/05/29 06:37:23;;;;;;;;;19.67;14.67;;;;;19.91;84.98;101688.13;5055582;28;63060;-75
2023/05/29 06:39:48;;;;;;;;;13.67;12.67;;;;;19.92;84.54;101693.50;5055416;28;70173;-77
2023/05/29 06:42:14;;;;;;;;;11.00;11.00;;;;;19.91;85.26;101698.84;5055326;28;58225;-76
2023/05/29 06:44:39;;;;;;;;;18.67;13.67;;;;;19.93;85.04;101700.63;5054723;28;45453;-76
2023/05/29 06:47:05;;;;;;;;;14.33;13.00;;;;;19.93;85.23;101703.31;5050562;28;45684;-74
2023/05/29 06:49:30;;;;;;;;;18.33;14.67;;;;;19.95;85.30;101695.22;5053482;28;46378;-75
2023/05/29 06:51:56;;;;;;;;;15.33;11.67;;;;;19.94;84.74;101699.72;5052862;28;66928;-75
2023/05/29 06:54:21;;;;;;;;;15.00;14.00;;;;;19.98;85.10;101705.91;5050806;28;45527;-74
2023/05/29 06:56:46;;;;;;;;;13.67;12.33;;;;;20.01;85.37;101711.22;5052082;28;60770;-78
2023/05/29 06:59:12;;;;;;;;;16.33;13.33;;;;;20.03;84.93;101698.69;5052274;28;54252;-77
2023/05/29 07:01:37;;;;;;;;;14.67;14.67;;;;;20.04;85.81;101712.06;5049679;28;66637;-78
2023/05/29 07:04:03;;;;;;;;;14.67;12.67;;;;;20.08;85.51;101699.50;5054880;28;45343;-78
2023/05/29 07:06:28;;;;;;;;;13.33;11.00;;;;;20.10;85.30;101705.75;5052871;28;45465;-77
2023/05/29 07:08:54;;;;;;;;;17.67;13.67;;;;;20.18;85.57;101716.34;5050453;28;69020;-77
2023/05/29 07:11:19;;;;;;;;;15.33;13.33;;;;;20.20;85.68;101711.88;5054059;28;45419;-78
2023/05/29 07:13:44;;;;;;;;;17.33;14.67;;;;;20.24;85.15;101702.84;5035996;28;46987;-79
2023/05/29 07:16:10;;;;;;;;;14.00;13.00;;;;;20.26;85.05;101709.09;5048550;28;57931;-78
2023/05/29 07:18:35;;;;;;;;;14.33;12.00;;;;;20.26;84.82;101704.59;5034792;28;63302;-75
2023/05/29 07:21:01;;;;;;;;;14.00;12.67;;;;;20.28;84.49;101705.44;5044177;28;45512;-75
2023/05/29 07:23:26;;;;;;;;;16.00;13.00;;;;;20.26;85.12;101696.56;5044142;28;45362;-77
2023/05/29 07:25:51;;;;;;;;;14.00;11.67;;;;;20.28;85.01;101705.44;5048609;28;45402;-76
2023/05/29 07:28:17;;;;;;;;;15.33;13.33;;;;;20.28;85.01;101712.63;5035781;28;46360;-75
2023/05/29 07:30:42;;;;;;;;;16.33;12.33;;;;;20.27;84.98;101718.91;5046155;28;45394;-77
2023/05/29 07:33:07;;;;;;;;;16.67;14.00;;;;;20.23;85.22;101718.03;5032199;28;63512;-74
2023/05/29 07:35:33;;;;;;;;;13.00;12.00;;;;;20.19;85.84;101713.66;5056716;28;45362;-75
2023/05/29 07:37:59;;;;;;;;;13.00;10.33;;;;;20.20;85.91;101717.22;5053316;28;47278;-74
2023/05/29 07:40:25;;;;;;;;;14.67;13.00;;;;;20.20;86.32;101718.09;5057181;28;45475;-75
2023/05/29 07:42:50;;;;;;;;;19.33;10.67;;;;;20.21;86.46;101714.50;5049816;28;45506;-75
2023/05/29 07:45:15;;;;;;;;;12.67;12.67;;;;;20.18;86.58;101714.53;5046694;28;59520;-74
2023/05/29 07:47:40;;;;;;;;;20.00;17.67;;;;;20.17;86.04;101712.78;5051231;28;69376;-74
2023/05/29 07:50:06;;;;;;;;;18.67;15.67;;;;;20.20;86.97;101719.91;5046649;28;45423;-75
2023/05/29 07:52:32;;;;;;;;;20.33;17.00;;;;;20.21;86.43;101709.16;5054558;28;45347;-75
2023/05/29 07:54:57;;;;;;;;;15.00;13.33;;;;;20.25;86.51;101710.00;5057518;28;45332;-76
2023/05/29 07:57:23;;;;;;;;;13.67;13.67;;;;;20.31;86.92;101715.25;5055437;28;45597;-76
2023/05/29 07:59:51;;;;;;;;;15.00;13.67;;;;;20.33;87.11;101714.31;5053985;28;45304;-76
2023/05/29 08:02:16;;;;;;;;;16.00;13.33;;;;;20.34;87.91;101724.13;5051578;28;45485;-77
2023/05/29 08:04:42;;;;;;;;;15.33;14.67;;;;;20.32;87.67;101714.34;5056815;28;45327;-76
2023/05/29 08:07:07;;;;;;;;;21.00;16.00;;;;;20.28;87.35;101721.53;5055073;28;49900;-76
2023/05/29 08:09:33;;;;;;;;;15.33;14.00;;;;;20.24;88.18;101719.84;5052281;28;45533;-76
2023/05/29 08:14:45;;;;;;;;;16.67;15.00;;;;;20.15;88.14;101710.13;4991910;22;45712;-76
2023/05/29 08:17:10;;;;;;;;;13.67;13.00;;;;;20.14;88.69;101718.19;5026247;28;68759;-76
2023/05/29 08:19:36;;;;;;;;;16.00;14.67;;;;;20.15;88.89;101711.91;5032733;28;66749;-76
2023/05/29 08:22:01;;;;;;;;;15.33;15.33;;;;;20.13;89.63;101717.31;5030936;28;45501;-76
2023/05/29 08:24:27;;;;;;;;;18.33;18.00;;;;;20.16;88.89;101721.72;5032490;28;45514;-76
2023/05/29 08:26:53;;;;;;;;;16.33;15.00;;;;;20.18;90.29;101722.59;5034995;28;47320;-77
2023/05/29 08:29:18;;;;;;;;;16.00;13.33;;;;;20.19;89.42;101721.69;5034737;28;45495;-76
2023/05/29 08:31:43;;;;;;;;;14.00;13.67;;;;;20.22;90.42;101718.97;5032853;28;47226;-77
2023/05/29 08:34:10;;;;;;;;;21.67;15.67;;;;;20.25;90.22;101716.25;5033894;28;51962;-77
2023/05/29 08:36:35;;;;;;;;;20.00;15.00;;;;;20.29;89.61;101714.38;5035081;28;46673;-76
2023/05/29 08:39:00;;;;;;;;;19.33;14.67;;;;;20.26;89.65;101709.97;5029020;28;54473;-76
2023/05/29 08:41:56;;;;;;;;;21.00;19.33;;;;;20.30;89.68;101717.06;5035075;28;45326;-74
2023/05/29 08:44:22;;;;;;;;;14.33;14.00;;;;;20.36;89.89;101725.00;5034449;28;45282;-74
2023/05/29 08:46:54;;;;;;;;;18.67;16.67;;;;;20.40;89.43;101729.44;5029003;28;46497;-74
2023/05/29 08:49:22;;;;;;;;;18.00;16.33;;;;;20.45;88.91;101726.66;5033972;28;45465;-74
2023/05/29 08:51:50;;;;;;;;;17.33;14.33;;;;;20.51;89.25;101726.63;5035095;28;45469;-75
2023/05/29 08:54:16;;;;;;;;;15.00;15.00;;;;;20.57;89.72;101710.41;5034156;28;45303;-73
2023/05/29 08:56:41;;;;;;;;;13.67;13.00;;;;;20.66;90.04;101714.72;5031551;28;67003;-75
2023/05/29 08:59:07;;;;;;;;;16.67;15.67;;;;;20.74;89.79;101710.13;5032514;28;45471;-74
2023/05/29 09:01:35;;;;;;;;;17.00;13.00;;;;;20.80;90.01;101715.38;5031956;28;63912;-75
2023/05/29 09:04:01;;;;;;;;;21.67;17.33;;;;;20.86;88.85;101714.38;5036231;28;45614;-75
2023/05/29 09:06:26;;;;;;;;;16.00;14.33;;;;;20.91;88.46;101717.88;5031807;28;47381;-75
2023/05/29 09:08:52;;;;;;;;;15.00;13.33;;;;;20.93;88.85;101706.22;5035141;28;45436;-75
2023/05/29 09:11:18;;;;;;;;;15.00;14.00;;;;;21.00;89.02;101706.09;5034155;28;45438;-76
2023/05/29 09:13:43;;;;;;;;;14.67;13.33;;;;;21.08;88.44;101704.13;5032292;28;45561;-77
2023/05/29 09:16:09;;;;;;;;;15.33;14.33;;;;;21.13;87.79;101719.25;5032856;28;46219;-75
2023/05/29 09:18:34;;;;;;;;;19.67;14.67;;;;;21.18;87.00;101721.84;5032064;28;45465;-75
2023/05/29 09:21:08;;;;;;;;;18.67;15.67;;;;;21.24;86.76;101716.38;5034704;28;63697;-76
2023/05/29 09:23:34;;;;;;;;;14.67;12.67;;;;;21.30;86.68;101718.09;5034191;28;45426;-76
2023/05/29 09:26:02;;;;;;;;;12.33;11.67;;;;;21.35;87.07;101713.50;5031725;28;46854;-76
2023/05/29 09:28:31;;;;;;;;;16.33;14.67;;;;;21.42;87.01;101718.75;5034262;28;47071;-76
2023/05/29 09:30:56;;;;;;;;;15.00;14.33;;;;;21.49;86.83;101716.81;5035496;28;45522;-76
2023/05/29 09:33:22;;;;;;;;;13.33;12.00;;;;;21.55;86.34;101705.94;5034808;28;45548;-76
2023/05/29 09:35:49;;;;;;;;;18.67;13.67;;;;;21.60;86.09;101712.09;5033991;28;67161;-76
2023/05/29 09:38:17;;;;;;;;;18.00;15.67;;;;;21.68;86.46;101711.97;5034442;28;45529;-76
2023/05/29 09:40:45;;;;;;;;;14.67;14.33;;;;;21.73;86.57;101715.41;5034809;28;45292;-76
2023/05/29 09:43:17;;;;;;;;;17.67;14.00;;;;;21.82;86.56;101712.53;5035237;28;45541;-75
2023/05/29 09:45:47;;;;;;;;;13.33;13.33;;;;;21.88;85.51;101715.09;5033589;28;46768;-75
2023/05/29 09:48:16;;;;;;;;;16.33;14.67;;;;;21.92;83.93;101705.16;5033092;28;45780;-76
2023/05/29 09:50:47;;;;;;;;;12.67;12.67;;;;;21.96;83.57;101705.06;5034257;28;45540;-76
2023/05/29 09:53:31;;;;;;;;;17.00;14.33;;;;;22.03;83.60;101712.97;5034313;28;45478;-76
2023/05/29 09:55:57;;;;;;;;;12.33;11.33;;;;;22.09;84.78;101700.28;5034381;28;71080;-76
2023/05/29 09:58:23;;;;;;;;;17.33;16.33;;;;;22.18;84.15;101701.91;5035071;28;45288;-76
2023/05/29 10:00:51;;;;;;;;;11.00;11.00;;;;;22.26;83.93;101701.72;5035268;28;45659;-76
2023/05/29 10:03:16;;;;;;;;;14.33;12.00;;;;;22.33;82.81;101701.56;5035633;28;45381;-76
2023/05/29 10:05:43;;;;;;;;;19.67;15.33;;;;;22.40;83.02;101711.25;5034924;28;47538;-76
2023/05/29 10:08:12;;;;;;;;;16.33;15.00;;;;;22.46;81.94;101710.19;5033071;28;45426;-76
2023/05/29 10:10:41;;;;;;;;;15.00;13.33;;;;;22.47;82.48;101707.47;5034932;28;45189;-76
2023/05/29 10:13:11;;;;;;;;;20.33;15.33;;;;;22.53;82.46;101716.31;5032255;28;45521;-76
2023/05/29 10:15:37;;;;;;;;;17.67;16.00;;;;;22.60;81.96;101699.13;5033848;28;47306;-76
2023/05/29 10:18:07;;;;;;;;;18.33;12.33;;;;;22.66;82.27;101709.72;5034037;28;59983;-76
2023/05/29 10:20:35;;;;;;;;;14.00;14.00;;;;;22.72;81.68;101693.41;5034731;28;45476;-76
2023/05/29 10:23:02;;;;;;;;;14.33;13.67;;;;;22.79;81.57;101696.81;5032089;28;45564;-76
2023/05/29 10:25:30;;;;;;;;;18.00;14.33;;;;;22.81;80.82;101695.88;5035094;28;46718;-76
2023/05/29 10:27:56;;;;;;;;;16.33;14.67;;;;;22.83;80.87;101683.25;5034754;28;45469;-76
2023/05/29 10:30:29;;;;;;;;;18.33;16.33;;;;;22.89;80.37;101679.53;5035530;28;45391;-76
2023/05/29 10:33:13;;;;;;;;;16.67;12.00;;;;;22.92;80.02;101688.41;5033776;28;45521;-76
2023/05/29 10:36:01;;;;;;;;;16.67;14.33;;;;;22.94;79.18;101688.38;5034751;28;46843;-76
2023/05/29 10:38:26;;;;;;;;;14.00;12.67;;;;;22.93;79.12;101682.09;5033810;28;45515;-76
2023/05/29 10:40:52;;;;;;;;;13.33;12.33;;;;;22.96;79.11;101686.53;5034039;28;45534;-76
2023/05/29 10:43:33;;;;;;;;;11.00;10.67;;;;;23.02;79.23;101672.91;5034903;28;45502;-75
2023/05/29 10:46:00;;;;;;;;;11.67;10.00;;;;;23.10;78.84;101684.34;5033663;28;46640;-76
2023/05/29 10:48:28;;;;;;;;;17.67;13.00;;;;;23.18;78.45;101682.34;5034689;28;45410;-76
2023/05/29 10:50:55;;;;;;;;;14.00;11.67;;;;;23.22;78.41;101685.81;5034757;28;45501;-76
2023/05/29 10:53:30;;;;;;;;;16.00;14.00;;;;;23.29;78.43;101684.72;5035133;28;45453;-76
2023/05/29 10:55:56;;;;;;;;;14.67;12.67;;;;;23.34;78.16;101682.78;5034771;28;46614;-76
2023/05/29 10:58:23;;;;;;;;;13.00;12.33;;;;;23.37;77.33;101682.69;5034745;28;45293;-76
2023/05/29 11:00:48;;;;;;;;;15.67;12.00;;;;;23.42;78.42;101677.16;5034635;28;45430;-76
2023/05/29 11:03:25;;;;;;;;;11.00;9.33;;;;;23.46;76.47;101677.03;5033472;28;45387;-75
2023/05/29 11:05:56;;;;;;;;;14.00;11.33;;;;;23.49;76.45;101679.66;5035119;28;46536;-76
2023/05/29 11:08:47;;;;;;;;;11.33;11.33;;;;;23.58;76.51;101685.69;5034986;28;45373;-76
2023/05/29 11:11:14;;;;;;;;;17.33;15.00;;;;;23.65;76.27;101679.19;5035708;28;45476;-76
2023/05/29 11:13:40;;;;;;;;;15.33;13.33;;;;;23.70;76.09;101671.88;5038885;28;45550;-76
2023/05/29 11:16:25;;;;;;;;;13.33;12.00;;;;;23.77;75.69;101679.75;5037193;28;46209;-76